sensor_id;sensor_type;location;lat;lon;timestamp;temperature;humidity
55648;DHT22;45266;48.756;9.246;2023-03-12T00:00:37;-2.50;99.90
55648;DHT22;45266;48.756;9.246;2023-03-12T00:01:39;-2.50;99.90
55648;DHT22;45266;48.756;9.246;2023-03-12T00:02:41;-2.50;99.90
55648;DHT22;45266;48.756;9.246;2023-03-12T00:03:43;-2.50;99.90
55648;DHT22;45266;48.756;9.246;2023-03-12T00:04:45;-2.50;99.90
55648;DHT22;45266;48.756;9.246;2023-03-12T00:05:47;-2.50;99.90
55648;DHT22;45266;48.756;9.246;2023-03-12T00:06:48;-2.50;99.90
55648;DHT22;45266;48.756;9.246;2023-03-12T00:07:51;-2.50;99.90
55648;DHT22;45266;48.756;9.246;2023-03-12T00:08:53;-2.50;99.90
55648;DHT22;45266;48.756;9.246;2023-03-12T00:09:56;-2.50;99.90
55648;DHT22;45266;48.756;9.246;2023-03-12T00:10:58;-2.50;99.90
55648;DHT22;45266;48.756;9.246;2023-03-12T00:12:01;-2.50;99.90
55648;DHT22;45266;48.756;9.246;2023-03-12T00:13:03;-2.50;99.90
55648;DHT22;45266;48.756;9.246;2023-03-12T00:14:04;-2.50;99.90
55648;DHT22;45266;48.756;9.246;2023-03-12T00:15:06;-2.60;99.90
55648;DHT22;45266;48.756;9.246;2023-03-12T00:16:13;-2.60;99.90
55648;DHT22;45266;48.756;9.246;2023-03-12T00:17:15;-2.60;99.90
55648;DHT22;45266;48.756;9.246;2023-03-12T00:18:17;-2.60;99.90
55648;DHT22;45266;48.756;9.246;2023-03-12T00:19:19;-2.60;99.90
55648;DHT22;45266;48.756;9.246;2023-03-12T00:20:21;-2.60;99.90
55648;DHT22;45266;48.756;9.246;2023-03-12T00:21:24;-2.60;99.90
55648;DHT22;45266;48.756;9.246;2023-03-12T00:22:26;-2.60;99.90
55648;DHT22;45266;48.756;9.246;2023-03-12T00:23:28;-2.70;99.90
55648;DHT22;45266;48.756;9.246;2023-03-12T00:24:30;-2.70;99.90
55648;DHT22;45266;48.756;9.246;2023-03-12T00:25:31;-2.70;99.90
55648;DHT22;45266;48.756;9.246;2023-03-12T00:26:33;-2.70;99.90
55648;DHT22;45266;48.756;9.246;2023-03-12T00:27:35;-2.70;99.90
55648;DHT22;45266;48.756;9.246;2023-03-12T00:28:38;-2.70;99.90
55648;DHT22;45266;48.756;9.246;2023-03-12T00:29:39;-2.70;99.90
55648;DHT22;45266;48.756;9.246;2023-03-12T00:30:41;-2.70;99.90
55648;DHT22;45266;48.756;9.246;2023-03-12T00:31:44;-2.70;99.90
55648;DHT22;45266;48.756;9.246;2023-03-12T00:32:46;-2.70;99.90
55648;DHT22;45266;48.756;9.246;2023-03-12T00:33:48;-2.70;99.90
55648;DHT22;45266;48.756;9.246;2023-03-12T00:34:54;-2.70;99.90
55648;DHT22;45266;48.756;9.246;2023-03-12T00:35:59;-2.70;99.90
55648;DHT22;45266;48.756;9.246;2023-03-12T00:37:01;-2.70;99.90
55648;DHT22;45266;48.756;9.246;2023-03-12T00:38:03;-2.70;99.90
55648;DHT22;45266;48.756;9.246;2023-03-12T00:39:05;-2.70;99.90
55648;DHT22;45266;48.756;9.246;2023-03-12T00:40:07;-2.70;99.90
55648;DHT22;45266;48.756;9.246;2023-03-12T00:41:10;-2.70;99.90
55648;DHT22;45266;48.756;9.246;2023-03-12T00:42:13;-2.70;99.90
55648;DHT22;45266;48.756;9.246;2023-03-12T00:43:15;-2.80;99.90
55648;DHT22;45266;48.756;9.246;2023-03-12T00:44:17;-2.80;99.90
55648;DHT22;45266;48.756;9.246;2023-03-12T00:45:18;-2.80;99.90
55648;DHT22;45266;48.756;9.246;2023-03-12T00:46:20;-2.80;99.90
55648;DHT22;45266;48.756;9.246;2023-03-12T00:47:22;-2.80;99.90
55648;DHT22;45266;48.756;9.246;2023-03-12T00:48:24;-2.80;99.90
55648;DHT22;45266;48.756;9.246;2023-03-12T00:49:26;-2.80;99.90
55648;DHT22;45266;48.756;9.246;2023-03-12T00:50:28;-2.70;99.90
55648;DHT22;45266;48.756;9.246;2023-03-12T00:51:29;-2.70;99.90
55648;DHT22;45266;48.756;9.246;2023-03-12T00:52:31;-2.70;99.90
55648;DHT22;45266;48.756;9.246;2023-03-12T00:53:33;-2.70;99.90
55648;DHT22;45266;48.756;9.246;2023-03-12T00:54:35;-2.70;99.90
55648;DHT22;45266;48.756;9.246;2023-03-12T00:55:37;-2.70;99.90
55648;DHT22;45266;48.756;9.246;2023-03-12T00:56:38;-2.70;99.90
55648;DHT22;45266;48.756;9.246;2023-03-12T00:57:40;-2.70;99.90
55648;DHT22;45266;48.756;9.246;2023-03-12T00:58:42;-2.70;99.90
55648;DHT22;45266;48.756;9.246;2023-03-12T00:59:44;-2.70;99.90
55648;DHT22;45266;48.756;9.246;2023-03-12T01:00:46;-2.70;99.90
55648;DHT22;45266;48.756;9.246;2023-03-12T01:01:48;-2.70;99.90
55648;DHT22;45266;48.756;9.246;2023-03-12T01:02:50;-2.80;99.90
55648;DHT22;45266;48.756;9.246;2023-03-12T01:03:52;-2.80;99.90
55648;DHT22;45266;48.756;9.246;2023-03-12T01:04:54;-2.80;99.90
55648;DHT22;45266;48.756;9.246;2023-03-12T01:05:56;-2.80;99.90
55648;DHT22;45266;48.756;9.246;2023-03-12T01:06:58;-2.80;99.90
55648;DHT22;45266;48.756;9.246;2023-03-12T01:07:59;-2.80;99.90
55648;DHT22;45266;48.756;9.246;2023-03-12T01:09:03;-2.80;99.90
55648;DHT22;45266;48.756;9.246;2023-03-12T01:10:06;-2.80;99.90
55648;DHT22;45266;48.756;9.246;2023-03-12T01:11:13;-2.80;99.90
55648;DHT22;45266;48.756;9.246;2023-03-12T01:12:15;-2.80;99.90
55648;DHT22;45266;48.756;9.246;2023-03-12T01:13:17;-2.80;99.90
55648;DHT22;45266;48.756;9.246;2023-03-12T01:14:19;-2.80;99.90
55648;DHT22;45266;48.756;9.246;2023-03-12T01:15:21;-2.80;99.90
55648;DHT22;45266;48.756;9.246;2023-03-12T01:16:23;-2.80;99.90
55648;DHT22;45266;48.756;9.246;2023-03-12T01:17:28;-2.80;99.90
55648;DHT22;45266;48.756;9.246;2023-03-12T01:18:32;-2.80;99.90
55648;DHT22;45266;48.756;9.246;2023-03-12T01:19:34;-2.80;99.90
55648;DHT22;45266;48.756;9.246;2023-03-12T01:20:36;-2.80;99.90
55648;DHT22;45266;48.756;9.246;2023-03-12T01:21:39;-2.80;99.90
55648;DHT22;45266;48.756;9.246;2023-03-12T01:22:40;-2.80;99.90
55648;DHT22;45266;48.756;9.246;2023-03-12T01:23:42;-2.80;99.90
55648;DHT22;45266;48.756;9.246;2023-03-12T01:24:44;-2.70;99.90
55648;DHT22;45266;48.756;9.246;2023-03-12T01:25:46;-2.70;99.90
55648;DHT22;45266;48.756;9.246;2023-03-12T01:26:48;-2.70;99.90
55648;DHT22;45266;48.756;9.246;2023-03-12T01:27:50;-2.70;99.90
55648;DHT22;45266;48.756;9.246;2023-03-12T01:28:52;-2.70;99.90
55648;DHT22;45266;48.756;9.246;2023-03-12T01:29:54;-2.70;99.90
55648;DHT22;45266;48.756;9.246;2023-03-12T01:30:56;-2.70;99.90
55648;DHT22;45266;48.756;9.246;2023-03-12T01:31:58;-2.70;99.90
55648;DHT22;45266;48.756;9.246;2023-03-12T01:33:00;-2.70;99.90
55648;DHT22;45266;48.756;9.246;2023-03-12T01:34:02;-2.70;99.90
55648;DHT22;45266;48.756;9.246;2023-03-12T01:35:04;-2.70;99.90
55648;DHT22;45266;48.756;9.246;2023-03-12T01:36:24;-2.70;99.90
55648;DHT22;45266;48.756;9.246;2023-03-12T01:37:27;-2.60;99.90
55648;DHT22;45266;48.756;9.246;2023-03-12T01:38:29;-2.60;99.90
55648;DHT22;45266;48.756;9.246;2023-03-12T01:39:31;-2.60;99.90
55648;DHT22;45266;48.756;9.246;2023-03-12T01:40:34;-2.60;99.90
55648;DHT22;45266;48.756;9.246;2023-03-12T01:41:36;-2.60;99.90
55648;DHT22;45266;48.756;9.246;2023-03-12T01:42:38;-2.60;99.90
55648;DHT22;45266;48.756;9.246;2023-03-12T01:43:40;-2.60;99.90
55648;DHT22;45266;48.756;9.246;2023-03-12T01:47:16;-2.60;99.90
55648;DHT22;45266;48.756;9.246;2023-03-12T01:48:19;-2.60;99.90
55648;DHT22;45266;48.756;9.246;2023-03-12T01:49:31;-2.60;99.90
55648;DHT22;45266;48.756;9.246;2023-03-12T01:50:33;-2.60;99.90
55648;DHT22;45266;48.756;9.246;2023-03-12T01:52:42;-2.60;99.90
55648;DHT22;45266;48.756;9.246;2023-03-12T01:53:47;-2.50;99.90
55648;DHT22;45266;48.756;9.246;2023-03-12T01:55:59;-2.50;99.90
55648;DHT22;45266;48.756;9.246;2023-03-12T01:57:04;-2.50;99.90
55648;DHT22;45266;48.756;9.246;2023-03-12T01:58:06;-2.40;99.90
55648;DHT22;45266;48.756;9.246;2023-03-12T01:59:16;-2.40;99.90
55648;DHT22;45266;48.756;9.246;2023-03-12T02:00:23;-2.40;99.90
55648;DHT22;45266;48.756;9.246;2023-03-12T02:01:26;-2.40;99.90
55648;DHT22;45266;48.756;9.246;2023-03-12T02:02:28;-2.40;99.90
55648;DHT22;45266;48.756;9.246;2023-03-12T02:03:32;-2.40;99.90
55648;DHT22;45266;48.756;9.246;2023-03-12T02:04:35;-2.30;99.90
55648;DHT22;45266;48.756;9.246;2023-03-12T02:05:52;-2.30;99.90
55648;DHT22;45266;48.756;9.246;2023-03-12T02:07:10;-2.30;99.90
55648;DHT22;45266;48.756;9.246;2023-03-12T02:08:14;-2.30;99.90
55648;DHT22;45266;48.756;9.246;2023-03-12T02:09:18;-2.30;99.90
55648;DHT22;45266;48.756;9.246;2023-03-12T02:10:21;-2.30;99.90
55648;DHT22;45266;48.756;9.246;2023-03-12T02:11:23;-2.30;99.90
55648;DHT22;45266;48.756;9.246;2023-03-12T02:12:25;-2.30;99.90
55648;DHT22;45266;48.756;9.246;2023-03-12T02:13:26;-2.30;99.90
55648;DHT22;45266;48.756;9.246;2023-03-12T02:14:29;-2.30;99.90
55648;DHT22;45266;48.756;9.246;2023-03-12T02:15:35;-2.30;99.90
55648;DHT22;45266;48.756;9.246;2023-03-12T02:16:38;-2.30;99.90
55648;DHT22;45266;48.756;9.246;2023-03-12T02:17:39;-2.30;99.90
55648;DHT22;45266;48.756;9.246;2023-03-12T02:18:42;-2.30;99.90
55648;DHT22;45266;48.756;9.246;2023-03-12T02:22:11;-2.30;99.90
55648;DHT22;45266;48.756;9.246;2023-03-12T02:24:27;-2.20;99.90
55648;DHT22;45266;48.756;9.246;2023-03-12T02:26:18;-2.10;99.90
55648;DHT22;45266;48.756;9.246;2023-03-12T02:27:22;-2.10;99.90
55648;DHT22;45266;48.756;9.246;2023-03-12T02:28:27;-2.00;99.90
55648;DHT22;45266;48.756;9.246;2023-03-12T02:29:31;-2.00;99.90
55648;DHT22;45266;48.756;9.246;2023-03-12T02:30:34;-2.00;99.90
55648;DHT22;45266;48.756;9.246;2023-03-12T02:31:42;-2.00;99.90
55648;DHT22;45266;48.756;9.246;2023-03-12T02:32:45;-2.00;99.90
55648;DHT22;45266;48.756;9.246;2023-03-12T02:33:49;-2.00;99.90
55648;DHT22;45266;48.756;9.246;2023-03-12T02:34:50;-2.00;99.90
55648;DHT22;45266;48.756;9.246;2023-03-12T02:35:53;-2.00;99.90
55648;DHT22;45266;48.756;9.246;2023-03-12T02:36:55;-2.00;99.90
55648;DHT22;45266;48.756;9.246;2023-03-12T02:37:57;-1.90;99.90
55648;DHT22;45266;48.756;9.246;2023-03-12T02:38:58;-2.00;99.90
55648;DHT22;45266;48.756;9.246;2023-03-12T02:40:14;-1.90;99.90
55648;DHT22;45266;48.756;9.246;2023-03-12T02:42:25;-1.90;99.90
55648;DHT22;45266;48.756;9.246;2023-03-12T02:43:27;-1.90;99.90
55648;DHT22;45266;48.756;9.246;2023-03-12T02:44:31;-1.70;99.90
55648;DHT22;45266;48.756;9.246;2023-03-12T02:45:35;-1.90;99.90
55648;DHT22;45266;48.756;9.246;2023-03-12T02:46:41;-1.90;99.90
55648;DHT22;45266;48.756;9.246;2023-03-12T02:47:43;-1.80;99.90
55648;DHT22;45266;48.756;9.246;2023-03-12T02:48:45;-1.90;99.90
55648;DHT22;45266;48.756;9.246;2023-03-12T02:49:47;-1.80;99.90
55648;DHT22;45266;48.756;9.246;2023-03-12T02:50:49;-1.90;99.90
55648;DHT22;45266;48.756;9.246;2023-03-12T02:51:51;-1.80;99.90
55648;DHT22;45266;48.756;9.246;2023-03-12T02:52:53;-1.90;99.90
55648;DHT22;45266;48.756;9.246;2023-03-12T02:53:55;-1.90;99.90
55648;DHT22;45266;48.756;9.246;2023-03-12T02:54:57;-1.90;99.90
55648;DHT22;45266;48.756;9.246;2023-03-12T02:55:58;-1.90;99.90
55648;DHT22;45266;48.756;9.246;2023-03-12T02:57:00;-1.90;99.90
55648;DHT22;45266;48.756;9.246;2023-03-12T02:58:02;-1.90;99.90
55648;DHT22;45266;48.756;9.246;2023-03-12T02:59:05;-1.90;99.90
55648;DHT22;45266;48.756;9.246;2023-03-12T03:00:09;-1.90;99.90
55648;DHT22;45266;48.756;9.246;2023-03-12T03:01:14;-1.90;99.90
55648;DHT22;45266;48.756;9.246;2023-03-12T03:02:16;-1.90;99.90
55648;DHT22;45266;48.756;9.246;2023-03-12T03:03:18;-2.00;99.90
55648;DHT22;45266;48.756;9.246;2023-03-12T03:04:20;-1.90;99.90
55648;DHT22;45266;48.756;9.246;2023-03-12T03:05:22;-1.90;99.90
55648;DHT22;45266;48.756;9.246;2023-03-12T03:06:24;-1.90;99.90
55648;DHT22;45266;48.756;9.246;2023-03-12T03:07:26;-1.90;99.90
55648;DHT22;45266;48.756;9.246;2023-03-12T03:08:28;-1.90;99.90
55648;DHT22;45266;48.756;9.246;2023-03-12T03:09:30;-1.90;99.90
55648;DHT22;45266;48.756;9.246;2023-03-12T03:10:31;-1.80;99.90
55648;DHT22;45266;48.756;9.246;2023-03-12T03:11:33;-1.90;99.90
55648;DHT22;45266;48.756;9.246;2023-03-12T03:12:36;-1.90;99.90
55648;DHT22;45266;48.756;9.246;2023-03-12T03:13:37;-1.90;99.90
55648;DHT22;45266;48.756;9.246;2023-03-12T03:14:39;-1.90;99.90
55648;DHT22;45266;48.756;9.246;2023-03-12T03:15:41;-1.90;99.90
55648;DHT22;45266;48.756;9.246;2023-03-12T03:16:43;-1.90;99.90
55648;DHT22;45266;48.756;9.246;2023-03-12T03:17:45;-2.00;99.90
55648;DHT22;45266;48.756;9.246;2023-03-12T03:18:47;-1.90;99.90
55648;DHT22;45266;48.756;9.246;2023-03-12T03:19:50;-1.90;99.90
55648;DHT22;45266;48.756;9.246;2023-03-12T03:21:04;-1.90;99.90
55648;DHT22;45266;48.756;9.246;2023-03-12T03:22:06;-1.90;99.90
55648;DHT22;45266;48.756;9.246;2023-03-12T03:23:07;-1.90;99.90
55648;DHT22;45266;48.756;9.246;2023-03-12T03:24:09;-1.90;99.90
55648;DHT22;45266;48.756;9.246;2023-03-12T03:25:11;-1.90;99.90
55648;DHT22;45266;48.756;9.246;2023-03-12T03:26:14;-1.90;99.90
55648;DHT22;45266;48.756;9.246;2023-03-12T03:27:16;-1.90;99.90
55648;DHT22;45266;48.756;9.246;2023-03-12T03:28:19;-1.90;99.90
55648;DHT22;45266;48.756;9.246;2023-03-12T03:29:21;-1.80;99.90
55648;DHT22;45266;48.756;9.246;2023-03-12T03:30:22;-1.80;99.90
55648;DHT22;45266;48.756;9.246;2023-03-12T03:31:25;-1.80;99.90
55648;DHT22;45266;48.756;9.246;2023-03-12T03:32:27;-1.70;99.90
55648;DHT22;45266;48.756;9.246;2023-03-12T03:33:31;-1.70;99.90
55648;DHT22;45266;48.756;9.246;2023-03-12T03:34:33;-1.70;99.90
55648;DHT22;45266;48.756;9.246;2023-03-12T03:35:35;-1.60;99.90
55648;DHT22;45266;48.756;9.246;2023-03-12T03:36:37;-1.50;99.90
55648;DHT22;45266;48.756;9.246;2023-03-12T03:37:39;-1.50;99.90
55648;DHT22;45266;48.756;9.246;2023-03-12T03:38:41;-1.50;99.90
55648;DHT22;45266;48.756;9.246;2023-03-12T03:39:44;-1.50;99.90
55648;DHT22;45266;48.756;9.246;2023-03-12T03:40:46;-1.50;99.90
55648;DHT22;45266;48.756;9.246;2023-03-12T03:41:48;-1.50;99.90
55648;DHT22;45266;48.756;9.246;2023-03-12T03:42:52;-1.40;99.90
55648;DHT22;45266;48.756;9.246;2023-03-12T03:43:57;-1.40;99.90
55648;DHT22;45266;48.756;9.246;2023-03-12T03:44:59;-1.40;99.90
55648;DHT22;45266;48.756;9.246;2023-03-12T03:46:04;-1.40;99.90
55648;DHT22;45266;48.756;9.246;2023-03-12T03:47:06;-1.40;99.90
55648;DHT22;45266;48.756;9.246;2023-03-12T03:48:08;-1.40;99.90
55648;DHT22;45266;48.756;9.246;2023-03-12T03:49:09;-1.30;99.90
55648;DHT22;45266;48.756;9.246;2023-03-12T03:50:11;-1.30;99.90
55648;DHT22;45266;48.756;9.246;2023-03-12T03:51:13;-1.30;99.90
55648;DHT22;45266;48.756;9.246;2023-03-12T03:52:15;-1.30;99.90
55648;DHT22;45266;48.756;9.246;2023-03-12T03:53:17;-1.30;99.90
55648;DHT22;45266;48.756;9.246;2023-03-12T03:54:22;-1.30;99.90
55648;DHT22;45266;48.756;9.246;2023-03-12T03:55:24;-1.20;99.90
55648;DHT22;45266;48.756;9.246;2023-03-12T03:56:26;-1.20;99.90
55648;DHT22;45266;48.756;9.246;2023-03-12T03:57:28;-1.20;99.90
55648;DHT22;45266;48.756;9.246;2023-03-12T03:58:30;-1.20;99.90
55648;DHT22;45266;48.756;9.246;2023-03-12T03:59:32;-1.20;99.90
55648;DHT22;45266;48.756;9.246;2023-03-12T04:00:33;-1.10;99.90
55648;DHT22;45266;48.756;9.246;2023-03-12T04:01:35;-1.20;99.90
55648;DHT22;45266;48.756;9.246;2023-03-12T04:02:38;-1.10;99.90
55648;DHT22;45266;48.756;9.246;2023-03-12T04:03:40;-1.10;99.90
55648;DHT22;45266;48.756;9.246;2023-03-12T04:04:42;-1.20;99.90
55648;DHT22;45266;48.756;9.246;2023-03-12T04:05:44;-1.10;99.90
55648;DHT22;45266;48.756;9.246;2023-03-12T04:06:46;-1.10;99.90
55648;DHT22;45266;48.756;9.246;2023-03-12T04:07:47;-1.10;99.90
55648;DHT22;45266;48.756;9.246;2023-03-12T04:08:49;-1.10;99.90
55648;DHT22;45266;48.756;9.246;2023-03-12T04:09:51;-1.10;99.90
55648;DHT22;45266;48.756;9.246;2023-03-12T04:10:53;-1.10;99.90
55648;DHT22;45266;48.756;9.246;2023-03-12T04:11:55;-1.10;99.90
55648;DHT22;45266;48.756;9.246;2023-03-12T04:12:57;-1.10;99.90
55648;DHT22;45266;48.756;9.246;2023-03-12T04:13:59;-1.10;99.90
55648;DHT22;45266;48.756;9.246;2023-03-12T04:15:00;-1.10;99.90
55648;DHT22;45266;48.756;9.246;2023-03-12T04:16:03;-1.00;99.90
55648;DHT22;45266;48.756;9.246;2023-03-12T04:17:05;-1.00;99.90
55648;DHT22;45266;48.756;9.246;2023-03-12T04:18:06;-1.00;99.90
55648;DHT22;45266;48.756;9.246;2023-03-12T04:19:08;-1.00;99.90
55648;DHT22;45266;48.756;9.246;2023-03-12T04:20:10;-1.00;99.90
55648;DHT22;45266;48.756;9.246;2023-03-12T04:21:13;-1.00;99.90
55648;DHT22;45266;48.756;9.246;2023-03-12T04:22:15;-1.00;99.90
55648;DHT22;45266;48.756;9.246;2023-03-12T04:23:17;-1.00;99.90
55648;DHT22;45266;48.756;9.246;2023-03-12T04:24:19;-1.00;99.90
55648;DHT22;45266;48.756;9.246;2023-03-12T04:25:21;-0.90;99.90
55648;DHT22;45266;48.756;9.246;2023-03-12T04:26:23;-0.90;99.90
55648;DHT22;45266;48.756;9.246;2023-03-12T04:27:24;-0.90;99.90
55648;DHT22;45266;48.756;9.246;2023-03-12T04:28:26;-0.90;99.90
55648;DHT22;45266;48.756;9.246;2023-03-12T04:29:28;-0.90;99.90
55648;DHT22;45266;48.756;9.246;2023-03-12T04:30:30;-0.90;99.90
55648;DHT22;45266;48.756;9.246;2023-03-12T04:31:32;-0.90;99.90
55648;DHT22;45266;48.756;9.246;2023-03-12T04:32:34;-0.90;99.90
55648;DHT22;45266;48.756;9.246;2023-03-12T04:33:37;-0.90;99.90
55648;DHT22;45266;48.756;9.246;2023-03-12T04:34:39;-0.80;99.90
55648;DHT22;45266;48.756;9.246;2023-03-12T04:35:49;-0.80;99.90
55648;DHT22;45266;48.756;9.246;2023-03-12T04:36:52;-0.80;99.90
55648;DHT22;45266;48.756;9.246;2023-03-12T04:37:53;-0.80;99.90
55648;DHT22;45266;48.756;9.246;2023-03-12T04:38:55;-0.80;99.90
55648;DHT22;45266;48.756;9.246;2023-03-12T04:39:57;-0.80;99.90
55648;DHT22;45266;48.756;9.246;2023-03-12T04:41:02;-0.80;99.90
55648;DHT22;45266;48.756;9.246;2023-03-12T04:42:04;-0.70;99.90
55648;DHT22;45266;48.756;9.246;2023-03-12T04:43:06;-0.80;99.90
55648;DHT22;45266;48.756;9.246;2023-03-12T04:44:08;-0.80;99.90
55648;DHT22;45266;48.756;9.246;2023-03-12T04:45:13;-0.70;99.90
55648;DHT22;45266;48.756;9.246;2023-03-12T04:46:15;-0.70;99.90
55648;DHT22;45266;48.756;9.246;2023-03-12T04:47:17;-0.70;99.90
55648;DHT22;45266;48.756;9.246;2023-03-12T04:48:19;-0.70;99.90
55648;DHT22;45266;48.756;9.246;2023-03-12T04:49:20;-0.70;99.90
55648;DHT22;45266;48.756;9.246;2023-03-12T04:50:22;-0.70;99.90
55648;DHT22;45266;48.756;9.246;2023-03-12T04:51:24;-0.70;99.90
55648;DHT22;45266;48.756;9.246;2023-03-12T04:52:26;-0.70;99.90
55648;DHT22;45266;48.756;9.246;2023-03-12T04:53:28;-0.70;99.90
55648;DHT22;45266;48.756;9.246;2023-03-12T04:54:29;-0.70;99.90
55648;DHT22;45266;48.756;9.246;2023-03-12T04:55:32;-0.70;99.90
55648;DHT22;45266;48.756;9.246;2023-03-12T04:56:34;-0.70;99.90
55648;DHT22;45266;48.756;9.246;2023-03-12T04:57:35;-0.70;99.90
55648;DHT22;45266;48.756;9.246;2023-03-12T04:58:37;-0.70;99.90
55648;DHT22;45266;48.756;9.246;2023-03-12T04:59:39;-0.70;99.90
55648;DHT22;45266;48.756;9.246;2023-03-12T05:00:41;-0.60;99.90
55648;DHT22;45266;48.756;9.246;2023-03-12T05:01:43;-0.70;99.90
55648;DHT22;45266;48.756;9.246;2023-03-12T05:02:45;-0.60;99.90
55648;DHT22;45266;48.756;9.246;2023-03-12T05:03:47;-0.60;99.90
55648;DHT22;45266;48.756;9.246;2023-03-12T05:04:49;-0.60;99.90
55648;DHT22;45266;48.756;9.246;2023-03-12T05:05:51;-0.60;99.90
55648;DHT22;45266;48.756;9.246;2023-03-12T05:06:52;-0.60;99.90
55648;DHT22;45266;48.756;9.246;2023-03-12T05:07:54;-0.60;99.90
55648;DHT22;45266;48.756;9.246;2023-03-12T05:08:56;-0.50;99.90
55648;DHT22;45266;48.756;9.246;2023-03-12T05:09:58;-0.50;99.90
55648;DHT22;45266;48.756;9.246;2023-03-12T05:11:00;-0.50;99.90
55648;DHT22;45266;48.756;9.246;2023-03-12T05:12:02;-0.50;99.90
55648;DHT22;45266;48.756;9.246;2023-03-12T05:13:03;-0.50;99.90
55648;DHT22;45266;48.756;9.246;2023-03-12T05:14:05;-0.50;99.90
55648;DHT22;45266;48.756;9.246;2023-03-12T05:15:07;-0.40;99.90
55648;DHT22;45266;48.756;9.246;2023-03-12T05:16:10;-0.50;99.90
55648;DHT22;45266;48.756;9.246;2023-03-12T05:17:12;-0.50;99.90
55648;DHT22;45266;48.756;9.246;2023-03-12T05:18:13;-0.50;99.90
55648;DHT22;45266;48.756;9.246;2023-03-12T05:19:15;-0.40;99.90
55648;DHT22;45266;48.756;9.246;2023-03-12T05:20:17;-0.40;99.90
55648;DHT22;45266;48.756;9.246;2023-03-12T05:21:20;-0.40;99.90
55648;DHT22;45266;48.756;9.246;2023-03-12T05:22:22;-0.40;99.90
55648;DHT22;45266;48.756;9.246;2023-03-12T05:23:24;-0.30;99.90
55648;DHT22;45266;48.756;9.246;2023-03-12T05:24:26;-0.30;99.90
55648;DHT22;45266;48.756;9.246;2023-03-12T05:25:28;-0.30;99.90
55648;DHT22;45266;48.756;9.246;2023-03-12T05:26:31;-0.30;99.90
55648;DHT22;45266;48.756;9.246;2023-03-12T05:27:34;-0.30;99.90
55648;DHT22;45266;48.756;9.246;2023-03-12T05:28:36;-0.20;99.90
55648;DHT22;45266;48.756;9.246;2023-03-12T05:29:37;-0.20;99.90
55648;DHT22;45266;48.756;9.246;2023-03-12T05:30:39;-0.20;99.90
55648;DHT22;45266;48.756;9.246;2023-03-12T05:31:41;-0.10;99.90
55648;DHT22;45266;48.756;9.246;2023-03-12T05:32:43;-0.10;99.90
55648;DHT22;45266;48.756;9.246;2023-03-12T05:33:45;-0.10;99.90
55648;DHT22;45266;48.756;9.246;2023-03-12T05:34:47;-0.10;99.90
55648;DHT22;45266;48.756;9.246;2023-03-12T05:35:49;-0.10;99.90
55648;DHT22;45266;48.756;9.246;2023-03-12T05:36:51;-0.10;99.90
55648;DHT22;45266;48.756;9.246;2023-03-12T05:37:52;0.00;99.90
55648;DHT22;45266;48.756;9.246;2023-03-12T05:38:54;0.00;99.90
55648;DHT22;45266;48.756;9.246;2023-03-12T05:39:56;0.00;99.90
55648;DHT22;45266;48.756;9.246;2023-03-12T05:40:58;0.00;99.90
55648;DHT22;45266;48.756;9.246;2023-03-12T05:42:00;0.00;99.90
55648;DHT22;45266;48.756;9.246;2023-03-12T05:43:02;0.00;99.90
55648;DHT22;45266;48.756;9.246;2023-03-12T05:44:04;0.10;99.90
55648;DHT22;45266;48.756;9.246;2023-03-12T05:45:06;0.10;99.90
55648;DHT22;45266;48.756;9.246;2023-03-12T05:46:08;0.10;99.90
55648;DHT22;45266;48.756;9.246;2023-03-12T05:47:10;0.10;99.90
55648;DHT22;45266;48.756;9.246;2023-03-12T05:48:12;0.10;99.90
55648;DHT22;45266;48.756;9.246;2023-03-12T05:49:14;0.10;99.90
55648;DHT22;45266;48.756;9.246;2023-03-12T05:50:16;0.10;99.90
55648;DHT22;45266;48.756;9.246;2023-03-12T05:51:18;0.10;99.90
55648;DHT22;45266;48.756;9.246;2023-03-12T05:52:19;0.10;99.90
55648;DHT22;45266;48.756;9.246;2023-03-12T05:53:22;0.10;99.90
55648;DHT22;45266;48.756;9.246;2023-03-12T05:54:24;0.10;99.90
55648;DHT22;45266;48.756;9.246;2023-03-12T05:55:25;0.10;99.90
55648;DHT22;45266;48.756;9.246;2023-03-12T05:56:27;0.10;99.90
55648;DHT22;45266;48.756;9.246;2023-03-12T05:57:29;0.10;99.90
55648;DHT22;45266;48.756;9.246;2023-03-12T05:58:32;0.20;99.90
55648;DHT22;45266;48.756;9.246;2023-03-12T05:59:34;0.10;99.90
55648;DHT22;45266;48.756;9.246;2023-03-12T06:00:36;0.20;99.90
55648;DHT22;45266;48.756;9.246;2023-03-12T06:01:39;0.10;99.90
55648;DHT22;45266;48.756;9.246;2023-03-12T06:02:42;0.10;99.90
55648;DHT22;45266;48.756;9.246;2023-03-12T06:03:44;0.20;99.90
55648;DHT22;45266;48.756;9.246;2023-03-12T06:04:46;0.10;99.90
55648;DHT22;45266;48.756;9.246;2023-03-12T06:05:48;0.10;99.90
55648;DHT22;45266;48.756;9.246;2023-03-12T06:06:50;0.10;99.90
55648;DHT22;45266;48.756;9.246;2023-03-12T06:07:52;0.10;99.90
55648;DHT22;45266;48.756;9.246;2023-03-12T06:08:53;0.10;99.90
55648;DHT22;45266;48.756;9.246;2023-03-12T06:09:55;0.10;99.90
55648;DHT22;45266;48.756;9.246;2023-03-12T06:10:57;0.10;99.90
55648;DHT22;45266;48.756;9.246;2023-03-12T06:11:59;0.10;99.90
55648;DHT22;45266;48.756;9.246;2023-03-12T06:13:01;0.10;99.90
55648;DHT22;45266;48.756;9.246;2023-03-12T06:14:03;0.10;99.90
55648;DHT22;45266;48.756;9.246;2023-03-12T06:15:06;0.10;99.90
55648;DHT22;45266;48.756;9.246;2023-03-12T06:16:15;0.10;99.90
55648;DHT22;45266;48.756;9.246;2023-03-12T06:17:18;0.10;99.90
55648;DHT22;45266;48.756;9.246;2023-03-12T06:18:19;0.10;99.90
55648;DHT22;45266;48.756;9.246;2023-03-12T06:19:21;0.10;99.90
55648;DHT22;45266;48.756;9.246;2023-03-12T06:20:23;0.20;99.90
55648;DHT22;45266;48.756;9.246;2023-03-12T06:21:28;0.20;99.90
55648;DHT22;45266;48.756;9.246;2023-03-12T06:22:30;0.20;99.90
55648;DHT22;45266;48.756;9.246;2023-03-12T06:23:31;0.20;99.90
55648;DHT22;45266;48.756;9.246;2023-03-12T06:24:33;0.20;99.90
55648;DHT22;45266;48.756;9.246;2023-03-12T06:25:35;0.30;99.90
55648;DHT22;45266;48.756;9.246;2023-03-12T06:26:37;0.20;99.90
55648;DHT22;45266;48.756;9.246;2023-03-12T06:27:39;0.30;99.90
55648;DHT22;45266;48.756;9.246;2023-03-12T06:28:42;0.30;99.90
55648;DHT22;45266;48.756;9.246;2023-03-12T06:29:43;0.30;99.90
55648;DHT22;45266;48.756;9.246;2023-03-12T06:30:47;0.30;99.90
55648;DHT22;45266;48.756;9.246;2023-03-12T06:31:49;0.30;99.90
55648;DHT22;45266;48.756;9.246;2023-03-12T06:32:53;0.30;99.90
55648;DHT22;45266;48.756;9.246;2023-03-12T06:33:55;0.30;99.90
55648;DHT22;45266;48.756;9.246;2023-03-12T06:34:56;0.30;99.90
55648;DHT22;45266;48.756;9.246;2023-03-12T06:36:03;0.30;99.90
55648;DHT22;45266;48.756;9.246;2023-03-12T06:37:05;0.30;99.90
55648;DHT22;45266;48.756;9.246;2023-03-12T06:38:06;0.30;99.90
55648;DHT22;45266;48.756;9.246;2023-03-12T06:39:08;0.30;99.90
55648;DHT22;45266;48.756;9.246;2023-03-12T06:40:10;0.30;99.90
55648;DHT22;45266;48.756;9.246;2023-03-12T06:41:15;0.30;99.90
55648;DHT22;45266;48.756;9.246;2023-03-12T06:42:18;0.30;99.90
55648;DHT22;45266;48.756;9.246;2023-03-12T06:43:21;0.30;99.90
55648;DHT22;45266;48.756;9.246;2023-03-12T06:44:23;0.30;99.90
55648;DHT22;45266;48.756;9.246;2023-03-12T06:45:25;0.30;99.90
55648;DHT22;45266;48.756;9.246;2023-03-12T06:46:27;0.30;99.90